Weather at Parry Sound Harbour Seaplane Base

Public forecast

Using degrees Celsius for public forecast. Weather courtesy of forecast.io.

Closest aviation weather report (METAR) to Parry Sound Harbour Seaplane Base

Closest report is Muskoka Airport, 37.9 nm (70.2 km) SE. Retrieved 2022/01/16 18:00 UTC (2 hours ago):

CYQA 161800Z AUTO /////KT 9SM CLR M09/M15 A3001 RMK PRESFR WIND MISG SLP192

Closest aviation forecast (TAF) to Parry Sound Harbour Seaplane Base

Closest forecast is Muskoka Airport, 37.9 nm (70.2 km) SE. Retrieved 2022/01/16 13:42 UTC (6 hours ago):

TAF TAF CYQA 161240Z 1613/1701 12006KT P6SM BKN012 TEMPO 1613/1617 SCT015 FM161700 14008KT P6SM SKC RMK FCST BASED ON AUTO OBS NXT FCST BY 162000Z